KTVF

Thief River Falls Regional Airport

Thief River Falls, Minnesota, USA
KTVF 260058Z 2601/2624 21011KT P6SM BKN150 FM260500 27012KT P6SM OVC130 FM260800 35015G24KT P6SM BKN080 FM262200 31013KT P6SM FEW250
Issued Valid From Valid To
Apr-26 @ 00:58 UTC
(3 hours ago)
Apr-26 @ 01:00 UTC
(3 hours ago)
Apr-27 @ 00:00 UTC
(in 20 hours)
Apr-26 @ 01:00 to Apr-26 @ 05:00
KTVF 260058Z 2601/2624 21011KT P6SM BKN150
Wind Visibility Clouds
210° at 11 knots Greater than 6 miles
  • Broken at 15,000' AGL
From Apr-26 @ 05:00 to Apr-26 @ 08:00
FM260500 27012KT P6SM OVC130
Wind Visibility Clouds
270° at 12 knots Greater than 6 miles
  • Overcast at 13,000' AGL
From Apr-26 @ 08:00 to Apr-26 @ 22:00
FM260800 35015G24KT P6SM BKN080
Wind Visibility Clouds
350° at 15 knots
 Gusting to 24 knots
Greater than 6 miles
  • Broken at 8,000' AGL
From Apr-26 @ 22:00 to Apr-27 @ 00:00
FM262200 31013KT P6SM FEW250
Wind Visibility Clouds
310° at 13 knots Greater than 6 miles
  • Few at 25,000' AGL
KTVF 260058Z 2601/2624 21011KT P6SM BKN150 FM260500 27012KT P6SM OVC130 FM260800 35015G24KT P6SM BKN080 FM262200 31013KT P6SM FEW250
Issued Apr-26 @ 00:58 UTC
(3 hours ago)
Valid From Apr-26 @ 01:00 UTC
(3 hours ago)
Valid To Apr-27 @ 00:00 UTC
(in 20 hours)
Apr-26 @ 01:00 - Apr-26 @ 05:00
Wind Visibility
210° at 11 knots Greater than 6 miles
Clouds
  • Broken at 15,000' AGL
From Apr-26 @ 05:00 - Apr-26 @ 08:00
Wind Visibility
270° at 12 knots Greater than 6 miles
Clouds
  • Overcast at 13,000' AGL
From Apr-26 @ 08:00 - Apr-26 @ 22:00
Wind Visibility
350° at 15 knots
 Gusting to 24 knots
Greater than 6 miles
Clouds
  • Broken at 8,000' AGL
From Apr-26 @ 22:00 - Apr-27 @ 00:00
Wind Visibility
310° at 13 knots Greater than 6 miles
Clouds
  • Few at 25,000' AGL